Terminal Aerodrome Forecast
Issued by NWS Sioux Falls, SD

Home | Current Version | Previous Version | Graphics & Text | Print | Product List | Glossary On
Versions: 1 2 3 4 5 6 7 8 9 10 11 12 13 14 15 16 17 18 19 20 21 22
000
FTUS43 KFSD 242330
TAFFSD
TAF
KFSD 242330Z 2500/2524 24005KT P6SM -RA BKN040
     FM250300 31012KT P6SM -RA OVC025
     FM250500 34015G22KT 3SM -SN OVC015
     FM250700 35018G25KT 3SM -SN OVC012
     FM251300 36015G22KT 6SM -SN OVC015
     FM251600 35014KT P6SM BKN030
     FM252200 31005KT P6SM SCT040 BKN250=

USA.gov is the U.S. government's official web portal to all federal, state and local government web resources and services.